Hlavní strana
METAR-TAF:

METAR-TAF

Letiště :

Mayo, Yukon, Kanada

zeměpisná šířka: 63-37N, zeměpisná délka: 135-52W, výška: 504 m

Aktuální stav počasí

Zpráva byla vytvořena před 1 hodinou a 10 minutami, v 14:00 UTC
Jižní vítr 7 kt s nárazy do 18 kt, proměnlivý mezi jihojihovýchodním a západojihozápadním
Teplota 9°C
Vlhkost vzduchu 40%
Tlak 1006 hPa
Viditelnost: 32.2 km
Skoro jasno ve výšce 5000 ft
Skoro jasno ve výšce 10000 ft
Polojasno ve výšce 22000 ft

METAR: CYMA 191400Z 19007G18KT 150V250 20SM FEW050 FEW100 SCT220 09/M04 A2972 RMK SC1AC2CI1 SC TR SLP082

Čas: 08:10 (15:10 UTC)

Předpověď počasí

Zpráva byla vytvořena před 3 hodinami a 32 minutami, v 11:38 UTC
Předpověď platná od 19 v 12 UTC do 19 v 24 UTC
Jihojihozápadní vítr 12 kt
Viditelnost: 10 km
Polojasno ve výšce 10000 ft
Oblačno až skoro zataženo ve výšce 20000 ft
Změna
od 19 v 14 UTC do 19 v 16 UTC
Jihojihovýchodní vítr 8 kt

TAF: CYMA 191138Z 1912/1924 21012KT P6SM SCT100 BKN200 BECMG 1914/1916 16008KT RMK NXT FCST BY 191800Z

Stav a předpovědi počasí z více než 4 000 letišť (zprávy METAR a TAF).

Červené a žluté tečky na mapě představují dostupné meteorologické stanice.

Když kurzor umístíte na tečku, zobrazí se název stanice.

Pak kliknutím zobrazíte stav a předpověď počasí.

Chcete-li změnit mapu, kliknutím na zelené tlačítko se znaménkem +mapu přiblížíte, kliknutím na zelené tlačítko se znaménkem – mapu oddálíte a kliknutím na zelené šipky přejdete na sousední mapy.


METAR-TAF: